createdAt,value
2018-12-16T00:00:50.966Z,7.10
2018-12-16T00:03:20.775Z,7.10
2018-12-16T00:05:50.685Z,7.10
2018-12-16T00:08:20.610Z,7.00
2018-12-16T00:10:50.529Z,7.00
2018-12-16T00:13:20.769Z,6.90
2018-12-16T00:15:50.678Z,7.00
2018-12-16T00:18:20.672Z,6.90
2018-12-16T00:20:50.483Z,7.00
2018-12-16T00:23:20.500Z,6.90
2018-12-16T00:25:50.445Z,6.90
2018-12-16T00:28:20.392Z,6.90
2018-12-16T00:30:50.357Z,7.00
2018-12-16T00:33:20.221Z,7.00
2018-12-16T00:35:50.176Z,7.00
2018-12-16T00:38:20.001Z,7.00
2018-12-16T00:40:49.905Z,7.00
2018-12-16T00:43:19.716Z,7.00
2018-12-16T00:45:49.635Z,6.90
2018-12-16T00:48:19.681Z,7.00
2018-12-16T00:50:49.597Z,7.00
2018-12-16T00:53:19.687Z,7.00
2018-12-16T00:55:49.526Z,7.00
2018-12-16T00:58:19.517Z,6.90
2018-12-16T01:00:49.464Z,7.00
2018-12-16T01:03:19.370Z,7.00
2018-12-16T01:05:49.367Z,7.00
2018-12-16T01:08:19.314Z,7.00
2018-12-16T01:10:49.293Z,7.00
2018-12-16T01:13:19.241Z,7.00
2018-12-16T01:15:49.186Z,7.00
2018-12-16T01:18:20.166Z,7.00
2018-12-16T01:20:50.081Z,6.90
2018-12-16T01:23:20.205Z,7.00
2018-12-16T01:25:50.018Z,7.00
2018-12-16T01:28:20.032Z,7.00
2018-12-16T01:30:49.906Z,7.00
2018-12-16T01:33:19.926Z,7.10
2018-12-16T01:35:49.777Z,7.10
2018-12-16T01:38:19.591Z,7.00
2018-12-16T01:40:49.505Z,7.00
2018-12-16T01:43:19.321Z,7.00
2018-12-16T01:45:49.236Z,7.00
2018-12-16T01:48:19.145Z,7.00
2018-12-16T01:50:49.063Z,7.00
2018-12-16T01:53:18.879Z,7.00
2018-12-16T01:55:48.793Z,7.10
2018-12-16T01:58:18.833Z,7.00
2018-12-16T02:00:48.630Z,7.00
2018-12-16T02:03:18.560Z,6.90
2018-12-16T02:05:48.469Z,6.90
2018-12-16T02:08:18.469Z,6.90
2018-12-16T02:10:48.297Z,6.90
2018-12-16T02:13:18.193Z,6.90
2018-12-16T02:15:48.108Z,6.90
2018-12-16T02:18:18.079Z,6.90
2018-12-16T02:20:47.973Z,7.00
2018-12-16T02:23:17.914Z,7.00
2018-12-16T02:25:47.974Z,6.90
2018-12-16T02:28:17.889Z,6.80
2018-12-16T02:30:47.805Z,6.80
2018-12-16T02:33:17.622Z,6.80
2018-12-16T02:35:47.634Z,6.70
2018-12-16T02:38:17.578Z,6.70
2018-12-16T02:40:47.466Z,6.70
2018-12-16T02:43:17.411Z,6.70
2018-12-16T02:45:47.294Z,6.70
2018-12-16T02:48:17.315Z,6.80
2018-12-16T02:50:47.279Z,6.80
2018-12-16T02:53:17.246Z,6.90
2018-12-16T02:55:47.192Z,6.90
2018-12-16T02:58:18.228Z,6.90
2018-12-16T03:00:48.218Z,7.00
2018-12-16T03:03:18.148Z,7.00
2018-12-16T03:05:48.169Z,7.00
2018-12-16T03:08:18.080Z,7.00
2018-12-16T03:10:47.981Z,7.00
2018-12-16T03:13:17.828Z,7.00
2018-12-16T03:15:47.810Z,7.00
2018-12-16T03:18:17.861Z,7.00
2018-12-16T03:20:47.846Z,6.90
2018-12-16T03:23:17.787Z,6.90
2018-12-16T03:25:47.782Z,6.90
2018-12-16T03:28:17.590Z,6.80
2018-12-16T03:30:47.605Z,6.80
2018-12-16T03:33:17.626Z,6.80
2018-12-16T03:35:47.569Z,6.70
2018-12-16T03:38:17.463Z,6.70
2018-12-16T03:40:47.397Z,6.70
2018-12-16T03:43:17.419Z,6.60
2018-12-16T03:45:47.306Z,6.50
2018-12-16T03:48:17.317Z,6.50
2018-12-16T03:50:47.134Z,6.50
2018-12-16T03:53:19.969Z,6.50
2018-12-16T03:55:49.140Z,6.50
2018-12-16T03:58:19.025Z,6.50
2018-12-16T04:00:48.944Z,6.50
2018-12-16T04:03:19.090Z,6.50
2018-12-16T04:05:49.245Z,6.50
2018-12-16T04:08:19.231Z,6.50
2018-12-16T04:10:49.145Z,6.50
2018-12-16T04:13:19.031Z,6.50
2018-12-16T04:15:48.977Z,6.50
2018-12-16T04:18:18.869Z,6.40
2018-12-16T04:20:48.804Z,6.40
2018-12-16T04:23:18.717Z,6.40
2018-12-16T04:25:48.809Z,6.50
2018-12-16T04:28:19.040Z,6.50
2018-12-16T04:30:49.076Z,6.50
2018-12-16T04:33:19.170Z,6.50
2018-12-16T04:35:49.112Z,6.50
2018-12-16T04:38:18.997Z,6.50
2018-12-16T04:40:49.176Z,6.40
2018-12-16T04:43:19.166Z,6.40
2018-12-16T04:45:49.049Z,6.40
2018-12-16T04:48:18.969Z,6.40
2018-12-16T04:50:48.777Z,6.40
2018-12-16T04:53:18.794Z,6.40
2018-12-16T04:55:48.800Z,6.40
2018-12-16T04:58:18.749Z,6.40
2018-12-16T05:00:48.677Z,6.40
2018-12-16T05:03:18.568Z,6.40
2018-12-16T05:05:48.478Z,6.40
2018-12-16T05:08:18.417Z,6.40
2018-12-16T05:10:48.405Z,6.40
2018-12-16T05:13:18.379Z,6.40
2018-12-16T05:15:48.236Z,6.30
2018-12-16T05:18:18.277Z,6.30
2018-12-16T05:20:48.164Z,6.20
2018-12-16T05:23:18.081Z,6.20
2018-12-16T05:25:47.954Z,6.10
2018-12-16T05:28:17.913Z,6.10
2018-12-16T05:30:47.825Z,6.00
2018-12-16T05:33:17.655Z,6.00
2018-12-16T05:35:47.560Z,6.10
2018-12-16T05:38:17.478Z,6.10
2018-12-16T05:40:47.385Z,6.10
2018-12-16T05:43:17.301Z,6.10
2018-12-16T05:45:48.078Z,6.00
2018-12-16T05:48:18.258Z,5.90
2018-12-16T05:50:48.064Z,5.80
2018-12-16T05:53:17.980Z,5.70
2018-12-16T05:55:48.026Z,5.60
2018-12-16T05:58:17.912Z,5.50
2018-12-16T06:00:47.834Z,5.50
2018-12-16T06:03:17.676Z,5.50
2018-12-16T06:05:47.660Z,5.40
2018-12-16T06:08:17.709Z,5.40
2018-12-16T06:10:47.488Z,5.40
2018-12-16T06:13:17.437Z,5.30
2018-12-16T06:15:47.342Z,5.30
2018-12-16T06:18:17.345Z,5.40
2018-12-16T06:20:47.254Z,5.40
2018-12-16T06:23:17.165Z,5.40
2018-12-16T06:25:47.150Z,5.50
2018-12-16T06:28:17.233Z,5.50
2018-12-16T06:30:47.592Z,5.50
2018-12-16T06:33:17.548Z,5.60
2018-12-16T06:35:47.489Z,5.50
2018-12-16T06:38:17.372Z,5.60
2018-12-16T06:40:47.317Z,5.50
2018-12-16T06:43:17.206Z,5.50
2018-12-16T06:45:47.149Z,5.50
2018-12-16T06:48:17.591Z,5.50
2018-12-16T06:50:47.561Z,5.50
2018-12-16T06:53:17.480Z,5.50
2018-12-16T06:55:47.398Z,5.40
2018-12-16T06:58:17.344Z,5.40
2018-12-16T07:00:47.358Z,5.40
2018-12-16T07:03:17.299Z,5.30
2018-12-16T07:05:47.285Z,5.30
2018-12-16T07:08:17.237Z,5.30
2018-12-16T07:10:47.293Z,5.30
2018-12-16T07:13:17.235Z,5.30
2018-12-16T07:15:47.125Z,5.20
2018-12-16T07:18:17.258Z,5.20
2018-12-16T07:20:47.087Z,5.20
2018-12-16T07:23:17.073Z,5.20
2018-12-16T07:25:47.018Z,5.20
2018-12-16T07:28:17.166Z,5.20
2018-12-16T07:30:47.149Z,5.20
2018-12-16T07:33:17.320Z,5.30
2018-12-16T07:35:47.262Z,5.30
2018-12-16T07:38:17.309Z,5.20
2018-12-16T07:40:47.398Z,5.10
2018-12-16T07:43:17.421Z,5.10
2018-12-16T07:45:47.288Z,5.00
2018-12-16T07:48:18.684Z,4.90
2018-12-16T07:50:48.666Z,4.80
2018-12-16T07:53:18.614Z,4.80
2018-12-16T07:55:48.556Z,4.70
2018-12-16T07:58:18.545Z,4.70
2018-12-16T08:00:48.501Z,4.80
2018-12-16T08:03:18.374Z,4.80
2018-12-16T08:05:48.323Z,4.80
2018-12-16T08:08:18.213Z,5.00
2018-12-16T08:10:48.122Z,5.00
2018-12-16T08:13:18.065Z,5.10
2018-12-16T08:15:47.952Z,5.10
2018-12-16T08:18:17.968Z,5.10
2018-12-16T08:20:47.776Z,5.30
2018-12-16T08:23:17.694Z,5.30
2018-12-16T08:25:47.615Z,5.40
2018-12-16T08:28:17.729Z,5.50
2018-12-16T08:30:47.854Z,5.60
2018-12-16T08:33:17.668Z,5.70
2018-12-16T08:35:47.577Z,5.80
2018-12-16T08:38:17.593Z,5.90
2018-12-16T08:40:47.408Z,5.90
2018-12-16T08:43:17.321Z,6.00
2018-12-16T08:45:47.142Z,6.10
2018-12-16T08:48:17.158Z,6.20
2018-12-16T08:50:47.170Z,6.30
2018-12-16T08:53:17.081Z,6.40
2018-12-16T08:55:46.960Z,6.40
2018-12-16T08:58:16.921Z,6.40
2018-12-16T09:00:46.830Z,6.50
2018-12-16T09:03:16.644Z,6.40
2018-12-16T09:05:46.556Z,6.50
2018-12-16T09:08:16.483Z,6.60
2018-12-16T09:10:46.397Z,6.60
2018-12-16T09:13:16.333Z,6.70
2018-12-16T09:15:46.296Z,6.80
2018-12-16T09:18:16.274Z,6.80
2018-12-16T09:20:46.176Z,6.90
2018-12-16T09:23:16.170Z,7.00
2018-12-16T09:25:46.014Z,7.00
2018-12-16T09:28:15.998Z,7.10
2018-12-16T09:30:46.045Z,7.20
2018-12-16T09:33:16.038Z,7.30
2018-12-16T09:35:45.850Z,7.50
2018-12-16T09:38:15.762Z,7.60
2018-12-16T09:40:45.574Z,7.70
2018-12-16T09:43:15.484Z,7.70
2018-12-16T09:45:49.502Z,7.70
2018-12-16T09:48:17.265Z,7.70
2018-12-16T09:50:47.385Z,7.80
2018-12-16T09:53:17.225Z,7.80
2018-12-16T09:55:47.209Z,7.80
2018-12-16T09:58:17.125Z,7.90
2018-12-16T10:00:47.044Z,8.00
2018-12-16T10:03:17.160Z,8.00
2018-12-16T10:05:46.980Z,8.20
2018-12-16T10:08:16.992Z,8.30
2018-12-16T10:10:46.810Z,8.60
2018-12-16T10:13:16.717Z,8.80
2018-12-16T10:15:46.533Z,8.90
2018-12-16T10:18:16.551Z,9.00
2018-12-16T10:20:46.496Z,9.10
2018-12-16T10:23:16.409Z,9.20
2018-12-16T10:25:46.431Z,9.20
2018-12-16T10:28:16.322Z,9.30
2018-12-16T10:30:46.334Z,9.30
2018-12-16T10:33:16.652Z,9.30
2018-12-16T10:35:46.596Z,9.30
2018-12-16T10:38:16.543Z,9.40
2018-12-16T10:40:46.530Z,9.50
2018-12-16T10:43:16.415Z,9.60
2018-12-16T10:45:46.345Z,9.70
2018-12-16T10:48:16.383Z,9.70
2018-12-16T10:50:46.260Z,9.70
2018-12-16T10:53:16.208Z,9.70
2018-12-16T10:55:46.152Z,9.70
2018-12-16T10:58:17.162Z,9.70
2018-12-16T11:00:52.331Z,9.60
2018-12-16T11:03:22.348Z,9.60
2018-12-16T11:05:52.306Z,9.60
2018-12-16T11:08:22.269Z,9.50
2018-12-16T11:10:52.241Z,9.50
2018-12-16T11:13:22.186Z,9.50
2018-12-16T11:15:52.128Z,9.40
2018-12-16T11:18:24.132Z,9.50
2018-12-16T11:20:54.049Z,9.60
2018-12-16T11:23:23.923Z,9.80
2018-12-16T11:25:55.178Z,9.90
2018-12-16T11:28:25.128Z,10.10
2018-12-16T11:30:54.998Z,10.20
2018-12-16T11:33:24.985Z,10.20
2018-12-16T11:35:54.976Z,10.20
2018-12-16T11:38:25.023Z,10.20
2018-12-16T11:40:54.921Z,10.10
2018-12-16T11:43:24.821Z,10.10
2018-12-16T11:45:54.632Z,10.10
2018-12-16T11:48:24.553Z,9.90
2018-12-16T11:50:54.388Z,9.90
2018-12-16T11:53:24.406Z,9.80
2018-12-16T11:55:54.585Z,9.80
2018-12-16T11:58:24.418Z,9.70
2018-12-16T12:00:54.328Z,9.70
2018-12-16T12:03:24.249Z,9.60
2018-12-16T12:05:54.319Z,9.50
2018-12-16T12:08:24.277Z,9.40
2018-12-16T12:10:54.199Z,9.40
2018-12-16T12:13:24.138Z,9.30
2018-12-16T12:15:54.083Z,9.30
2018-12-16T12:18:24.962Z,9.20
2018-12-16T12:20:54.885Z,9.20
2018-12-16T12:23:26.184Z,9.10
2018-12-16T12:25:56.178Z,9.10
2018-12-16T12:28:26.218Z,9.10
2018-12-16T12:30:56.176Z,9.10
2018-12-16T12:33:26.151Z,9.00
2018-12-16T12:35:56.105Z,9.00
2018-12-16T12:38:26.129Z,8.90
2018-12-16T12:40:56.001Z,8.90
2018-12-16T12:43:25.957Z,8.80
2018-12-16T12:45:55.773Z,8.80
2018-12-16T12:48:25.789Z,8.70
2018-12-16T12:50:55.745Z,8.70
2018-12-16T12:53:25.675Z,8.60
2018-12-16T12:55:55.660Z,8.60
2018-12-16T12:58:25.544Z,8.50
2018-12-16T13:00:55.509Z,8.50
2018-12-16T13:03:25.436Z,8.50
2018-12-16T13:05:55.397Z,8.50
2018-12-16T13:08:25.441Z,8.40
2018-12-16T13:10:55.329Z,8.40
2018-12-16T13:13:25.239Z,8.40
2018-12-16T13:15:55.055Z,8.40
2018-12-16T13:18:25.069Z,8.40
2018-12-16T13:20:55.018Z,8.40
2018-12-16T13:23:25.005Z,8.40
2018-12-16T13:26:04.113Z,8.40
2018-12-16T13:28:34.009Z,8.40
2018-12-16T13:31:03.922Z,8.40
2018-12-16T13:33:33.838Z,8.40
2018-12-16T13:36:04.206Z,8.40
2018-12-16T13:38:34.242Z,8.50
2018-12-16T13:41:04.168Z,8.50
2018-12-16T13:43:34.193Z,8.50
2018-12-16T13:46:04.306Z,8.50
2018-12-16T13:48:34.189Z,8.50
2018-12-16T13:51:04.021Z,8.50
2018-12-16T13:53:33.950Z,8.50
2018-12-16T13:56:03.892Z,8.50
2018-12-16T13:58:34.768Z,8.60
2018-12-16T14:01:04.733Z,8.60
2018-12-16T14:03:34.634Z,8.60
2018-12-16T14:06:04.616Z,8.60
2018-12-16T14:08:34.660Z,8.60
2018-12-16T14:11:04.611Z,8.50
2018-12-16T14:13:34.575Z,8.50
2018-12-16T14:16:04.405Z,8.50
2018-12-16T14:18:34.406Z,8.50
2018-12-16T14:21:04.346Z,8.50
2018-12-16T14:23:34.232Z,8.50
2018-12-16T14:26:04.181Z,8.50
2018-12-16T14:28:34.069Z,8.50
2018-12-16T14:31:04.073Z,8.50
2018-12-16T14:33:34.044Z,8.50
2018-12-16T14:36:04.174Z,8.50
2018-12-16T14:38:34.538Z,8.50
2018-12-16T14:41:04.489Z,8.50
2018-12-16T14:43:34.382Z,8.50
2018-12-16T14:46:04.313Z,8.50
2018-12-16T14:48:34.622Z,8.50
2018-12-16T14:51:04.563Z,8.60
2018-12-16T14:53:34.436Z,8.60
2018-12-16T14:56:04.353Z,8.60
2018-12-16T14:58:34.224Z,8.60
2018-12-16T15:01:04.053Z,8.50
2018-12-16T15:03:33.888Z,8.60
2018-12-16T15:06:03.869Z,8.50
2018-12-16T15:08:34.908Z,8.60
2018-12-16T15:11:06.176Z,8.60
2018-12-16T15:13:36.318Z,8.50
2018-12-16T15:16:06.134Z,8.50
2018-12-16T15:18:36.146Z,8.50
2018-12-16T15:21:06.093Z,8.50
2018-12-16T15:23:36.039Z,8.50
2018-12-16T15:26:05.994Z,8.50
2018-12-16T15:28:35.941Z,8.50
2018-12-16T15:31:06.033Z,8.50
2018-12-16T15:33:35.978Z,8.50
2018-12-16T15:36:05.905Z,8.50
2018-12-16T15:38:35.877Z,8.50
2018-12-16T15:41:05.696Z,8.40
2018-12-16T15:43:35.600Z,8.50
2018-12-16T15:46:05.443Z,8.40
2018-12-16T15:48:35.438Z,8.40
2018-12-16T15:51:05.381Z,8.40
2018-12-16T15:53:35.441Z,8.40
2018-12-16T15:56:09.316Z,8.40
2018-12-16T15:58:37.758Z,8.40
2018-12-16T16:01:07.730Z,8.30
2018-12-16T16:03:37.586Z,8.30
2018-12-16T16:06:07.811Z,8.30
2018-12-16T16:08:37.679Z,8.30
2018-12-16T16:11:07.638Z,8.30
2018-12-16T16:13:37.453Z,8.30
2018-12-16T16:16:07.398Z,8.30
2018-12-16T16:18:37.308Z,8.30
2018-12-16T16:21:07.297Z,8.20
2018-12-16T16:23:37.117Z,8.20
2018-12-16T16:26:08.481Z,8.20
2018-12-16T16:28:39.545Z,8.20
2018-12-16T16:31:11.517Z,8.20
2018-12-16T16:33:43.019Z,8.20
2018-12-16T16:36:14.662Z,8.20
2018-12-16T16:38:46.437Z,8.20
2018-12-16T16:41:17.870Z,8.10
2018-12-16T16:43:49.629Z,8.10
2018-12-16T16:46:21.186Z,8.10
2018-12-16T16:48:52.373Z,8.10
2018-12-16T16:51:23.852Z,8.00
2018-12-16T16:53:55.037Z,8.00
2018-12-16T16:56:25.362Z,8.00
2018-12-16T16:58:56.449Z,8.00
2018-12-16T17:01:27.937Z,8.00
2018-12-16T17:03:59.445Z,7.90
2018-12-16T17:06:29.540Z,7.90
2018-12-16T17:08:59.574Z,8.00
2018-12-16T17:11:29.516Z,8.00
2018-12-16T17:13:59.950Z,7.90
2018-12-16T17:16:29.932Z,8.00
2018-12-16T17:19:00.292Z,7.90
2018-12-16T17:21:30.513Z,8.00
2018-12-16T17:24:00.496Z,7.90
2018-12-16T17:26:30.518Z,7.90
2018-12-16T17:29:00.501Z,7.90
2018-12-16T17:31:30.342Z,7.90
2018-12-16T17:34:00.333Z,7.90
2018-12-16T17:36:30.306Z,7.90
2018-12-16T17:39:01.293Z,7.80
2018-12-16T17:41:31.205Z,7.70
2018-12-16T17:44:01.026Z,7.60
2018-12-16T17:46:30.956Z,7.60
2018-12-16T17:49:00.849Z,7.60
2018-12-16T17:51:30.785Z,7.50
2018-12-16T17:54:00.721Z,7.50
2018-12-16T17:56:36.841Z,7.40
2018-12-16T17:59:02.762Z,7.40
2018-12-16T18:01:32.616Z,7.40
2018-12-16T18:04:04.666Z,7.40
2018-12-16T18:06:34.863Z,7.40
2018-12-16T18:09:06.526Z,7.40
2018-12-16T18:11:36.323Z,7.40
2018-12-16T18:14:06.276Z,7.30
2018-12-16T18:16:36.281Z,7.40
2018-12-16T18:19:06.188Z,7.30
2018-12-16T18:21:36.124Z,7.30
2018-12-16T18:24:06.030Z,7.30
2018-12-16T18:26:35.870Z,7.30
2018-12-16T18:29:05.777Z,7.20
2018-12-16T18:31:35.705Z,7.10
2018-12-16T18:34:05.669Z,7.10
2018-12-16T18:36:35.590Z,7.20
2018-12-16T18:39:08.569Z,7.20
2018-12-16T18:41:39.065Z,7.10
2018-12-16T18:44:09.028Z,7.00
2018-12-16T18:46:38.823Z,7.00
2018-12-16T18:49:08.842Z,7.00
2018-12-16T18:51:39.060Z,7.00
2018-12-16T18:54:08.876Z,6.90
2018-12-16T18:56:38.790Z,6.90
2018-12-16T18:59:08.729Z,6.80
2018-12-16T19:01:38.721Z,6.90
2018-12-16T19:04:08.534Z,6.80
2018-12-16T19:06:38.551Z,6.80
2018-12-16T19:09:09.394Z,6.70
2018-12-16T19:11:39.336Z,6.70
2018-12-16T19:14:09.257Z,6.60
2018-12-16T19:16:39.264Z,6.70
2018-12-16T19:19:09.525Z,6.70
2018-12-16T19:21:39.483Z,6.60
2018-12-16T19:24:09.421Z,6.60
2018-12-16T19:26:39.364Z,6.60
2018-12-16T19:29:12.967Z,6.50
2018-12-16T19:31:42.879Z,6.50
2018-12-16T19:34:12.795Z,6.50
2018-12-16T19:36:42.881Z,6.60
2018-12-16T19:39:12.833Z,6.50
2018-12-16T19:41:42.897Z,6.60
2018-12-16T19:44:12.946Z,6.70
2018-12-16T19:46:43.238Z,6.60
2018-12-16T19:49:13.717Z,6.60
2018-12-16T19:51:43.752Z,6.60
2018-12-16T19:54:13.692Z,6.60
2018-12-16T19:56:43.626Z,6.60
2018-12-16T19:59:13.749Z,6.70
2018-12-16T20:01:43.804Z,6.60
2018-12-16T20:04:19.661Z,6.70
2018-12-16T20:06:49.899Z,6.70
2018-12-16T20:09:19.916Z,6.80
2018-12-16T20:11:49.872Z,6.80
2018-12-16T20:14:19.684Z,6.90
2018-12-16T20:16:49.587Z,7.00
2018-12-16T20:19:19.745Z,7.10
2018-12-16T20:21:49.872Z,7.20
2018-12-16T20:24:20.489Z,7.20
2018-12-16T20:26:50.778Z,7.10
2018-12-16T20:29:20.934Z,7.00
2018-12-16T20:31:51.079Z,6.90
2018-12-16T20:34:21.141Z,6.90
2018-12-16T20:36:51.189Z,6.80
2018-12-16T20:39:21.144Z,6.60
2018-12-16T20:41:51.090Z,6.40
2018-12-16T20:44:21.039Z,6.30
2018-12-16T20:46:50.950Z,6.20
2018-12-16T20:49:20.969Z,6.10
2018-12-16T20:51:51.173Z,6.10
2018-12-16T20:54:21.082Z,6.00
2018-12-16T20:56:51.565Z,6.00
2018-12-16T20:59:21.548Z,5.90
2018-12-16T21:01:51.494Z,5.80
2018-12-16T21:04:21.485Z,5.70
2018-12-16T21:06:51.413Z,5.70
2018-12-16T21:09:21.689Z,5.60
2018-12-16T21:11:56.628Z,5.60
2018-12-16T21:14:31.357Z,5.60
2018-12-16T21:17:06.049Z,5.60
2018-12-16T21:19:36.170Z,5.60
2018-12-16T21:22:10.473Z,5.60
2018-12-16T21:24:40.465Z,5.70
2018-12-16T21:27:10.723Z,5.70
2018-12-16T21:29:40.709Z,5.70
2018-12-16T21:32:10.691Z,5.70
2018-12-16T21:34:40.649Z,5.70
2018-12-16T21:37:10.517Z,5.80
2018-12-16T21:39:40.668Z,5.80
2018-12-16T21:42:10.659Z,5.80
2018-12-16T21:44:40.469Z,5.90
2018-12-16T21:47:10.381Z,5.80
2018-12-16T21:49:40.429Z,5.90
2018-12-16T21:52:10.349Z,5.90
2018-12-16T21:54:40.337Z,5.90
2018-12-16T21:57:10.145Z,5.90
2018-12-16T21:59:40.210Z,5.90
2018-12-16T22:02:10.113Z,6.00
2018-12-16T22:04:40.098Z,6.00
2018-12-16T22:07:09.909Z,6.10
2018-12-16T22:09:39.926Z,6.00
2018-12-16T22:12:09.736Z,6.00
2018-12-16T22:14:39.663Z,6.10
2018-12-16T22:17:09.574Z,6.20
2018-12-16T22:19:39.482Z,6.30
2018-12-16T22:22:09.471Z,6.30
2018-12-16T22:24:39.317Z,6.30
2018-12-16T22:27:09.254Z,6.30
2018-12-16T22:29:39.149Z,6.20
2018-12-16T22:32:09.056Z,6.20
2018-12-16T22:34:38.869Z,6.20
2018-12-16T22:37:09.066Z,6.10
2018-12-16T22:39:39.038Z,6.10
2018-12-16T22:42:09.201Z,6.10
2018-12-16T22:44:39.145Z,6.00
2018-12-16T22:47:08.967Z,6.00
2018-12-16T22:49:38.977Z,6.00
2018-12-16T22:52:08.926Z,6.10
2018-12-16T22:54:38.806Z,6.00
2018-12-16T22:57:08.749Z,5.90
2018-12-16T22:59:38.643Z,5.90
2018-12-16T23:02:08.587Z,6.00
2018-12-16T23:04:38.475Z,6.00
2018-12-16T23:07:08.382Z,6.00
2018-12-16T23:09:38.429Z,5.90
2018-12-16T23:12:08.333Z,5.80
2018-12-16T23:14:38.345Z,5.80
2018-12-16T23:17:08.141Z,5.80
2018-12-16T23:19:38.161Z,5.70
2018-12-16T23:22:08.077Z,5.80
2018-12-16T23:24:38.265Z,5.80
2018-12-16T23:27:08.241Z,5.90
2018-12-16T23:29:38.256Z,5.90
2018-12-16T23:32:08.144Z,6.00
2018-12-16T23:34:38.010Z,5.90
2018-12-16T23:37:07.929Z,6.00
2018-12-16T23:39:39.932Z,6.00
2018-12-16T23:42:09.886Z,6.00
2018-12-16T23:44:39.849Z,5.90
2018-12-16T23:47:09.818Z,5.90
2018-12-16T23:49:39.700Z,6.00
2018-12-16T23:52:09.641Z,6.00
2018-12-16T23:54:39.587Z,6.00
2018-12-16T23:57:09.548Z,6.00
2018-12-16T23:59:39.596Z,6.10
